Time;durP1;ratioP1;P1;durP2;ratioP2;P2;SDS_P1;SDS_P2;PMS_P1;PMS_P2;Temp;Humidity;BMP_temperature;BMP_pressure;BME280_temperature;BME280_humidity;BME280_pressure;Samples;Min_cycle;Max_cycle;Signal;HPM_P1;HPM_P2
2023/12/10 00:00:46;;;;;;;24.15;13.80;;;;;;;-144.73;100.00;54738.16;4956778;28;20023;-77
2023/12/10 00:03:12;;;;;;;23.17;14.00;;;;;;;-144.73;100.00;54738.16;4969480;28;20047;-77
2023/12/10 00:05:37;;;;;;;23.13;13.27;;;;;;;-144.73;100.00;54760.75;4976218;28;20027;-79
2023/12/10 00:08:06;;;;;;;26.25;15.88;;;;;;;-144.73;100.00;54693.00;4973954;28;20030;-77
2023/12/10 00:10:31;;;;;;;25.60;14.77;;;;;;;-144.73;100.00;54713.53;5014106;28;20018;-78
2023/12/10 00:12:57;;;;;;;28.23;16.23;;;;;;;-144.73;100.00;54781.28;4980355;28;20173;-79
2023/12/10 00:15:22;;;;;;;30.77;17.08;;;;;;;-144.73;100.00;54721.75;4996402;28;20022;-80
2023/12/10 00:17:48;;;;;;;34.67;18.65;;;;;;;-144.73;100.00;54732.00;4983141;28;20038;-80
2023/12/10 00:20:14;;;;;;;26.35;16.30;;;;;;;-144.73;100.00;54707.38;4989772;28;20019;-81
2023/12/10 00:22:42;;;;;;;29.85;17.48;;;;;;;-144.73;100.00;54732.00;4993968;28;20049;-81
2023/12/10 00:25:08;;;;;;;30.88;17.85;;;;;;;-144.73;100.00;54670.44;4984596;28;20109;-80
2023/12/10 00:27:33;;;;;;;36.25;18.40;;;;;;;-144.73;100.00;54748.44;5015144;28;20035;-81
2023/12/10 00:29:59;;;;;;;30.65;18.45;;;;;;;-144.73;100.00;54703.28;4981557;28;20022;-80
2023/12/10 00:32:25;;;;;;;25.05;15.82;;;;;;;-144.73;100.00;54711.47;4980151;28;20387;-80
2023/12/10 00:34:50;;;;;;;32.10;18.17;;;;;;;-144.73;100.00;54748.44;4988282;28;20098;-81
2023/12/10 00:37:16;;;;;;;29.63;17.85;;;;;;;-144.73;100.00;54725.84;4986442;28;20060;-80
2023/12/10 00:39:47;;;;;;;28.88;17.20;;;;;;;-144.73;100.00;54748.44;4993934;28;20121;-80
2023/12/10 00:42:13;;;;;;;29.15;17.10;;;;;;;-144.73;100.00;54752.53;4983829;28;20047;-80
2023/12/10 00:44:39;;;;;;;32.90;18.50;;;;;;;-144.73;100.00;54744.31;4987305;28;20033;-79
2023/12/10 00:47:25;;;;;;;41.53;21.20;;;;;;;-144.73;100.00;54727.91;4992813;28;20129;-80
2023/12/10 00:49:51;;;;;;;45.50;22.27;;;;;;;-144.73;100.00;54707.38;4990707;28;20532;-79
2023/12/10 00:52:16;;;;;;;41.92;21.10;;;;;;;-144.73;100.00;54768.97;5010532;28;20129;-80
2023/12/10 00:54:41;;;;;;;38.53;22.80;;;;;;;-144.73;100.00;54705.31;4986581;28;20022;-80
2023/12/10 00:57:07;;;;;;;42.67;22.50;;;;;;;-144.73;100.00;54719.69;4985775;28;20049;-80
2023/12/10 00:59:32;;;;;;;43.53;23.05;;;;;;;-144.73;100.00;54719.69;5011512;28;20073;-80
2023/12/10 01:01:59;;;;;;;45.67;23.73;;;;;;;-144.73;100.00;54727.91;4987185;28;20042;-80
2023/12/10 01:04:27;;;;;;;39.78;22.38;;;;;;;-144.73;100.00;54738.16;4984129;28;20073;-79
2023/12/10 01:06:53;;;;;;;40.60;23.08;;;;;;;-144.73;100.00;54725.84;4977773;28;20045;-81
2023/12/10 01:09:18;;;;;;;42.25;22.95;;;;;;;-144.73;100.00;54760.75;4982922;28;20023;-80
2023/12/10 01:11:44;;;;;;;33.17;19.52;;;;;;;-144.73;100.00;54707.38;4982308;28;20529;-80
2023/12/10 01:14:10;;;;;;;36.47;21.23;;;;;;;-144.73;100.00;54752.53;4998919;28;20022;-80
2023/12/10 01:16:40;;;;;;;40.95;21.83;;;;;;;-144.73;100.00;54744.31;4984751;28;20089;-79
2023/12/10 01:19:05;;;;;;;42.97;21.73;;;;;;;-144.73;100.00;54756.66;4986847;28;20022;-80
2023/12/10 01:21:31;;;;;;;46.97;24.85;;;;;;;-144.73;100.00;54719.69;5013886;28;20030;-80
2023/12/10 01:23:59;;;;;;;42.38;23.00;;;;;;;-144.73;100.00;54744.31;4980925;28;20023;-80
2023/12/10 01:26:25;;;;;;;42.17;22.73;;;;;;;-144.73;100.00;54732.00;4974667;28;20037;-78
2023/12/10 01:28:51;;;;;;;42.55;23.15;;;;;;;-144.73;100.00;54781.28;4972581;28;20035;-78
2023/12/10 01:31:17;;;;;;;40.70;22.35;;;;;;;-144.73;100.00;54756.66;4974601;28;20078;-79
2023/12/10 01:33:42;;;;;;;43.25;21.55;;;;;;;-144.73;100.00;54719.69;4973908;28;20079;-79
2023/12/10 01:36:23;;;;;;;48.40;24.73;;;;;;;-144.73;100.00;54752.53;4974923;28;20086;-79
2023/12/10 01:38:49;;;;;;;273.52;38.97;;;;;;;-144.73;100.00;54736.13;4975247;28;20046;-79
2023/12/10 01:41:16;;;;;;;35.95;19.90;;;;;;;-144.73;100.00;54744.31;4975355;28;20026;-79
2023/12/10 01:43:42;;;;;;;43.85;21.50;;;;;;;-144.73;100.00;54740.22;4975263;28;20045;-78
2023/12/10 01:46:08;;;;;;;34.03;17.63;;;;;;;-144.73;100.00;54727.91;4992449;28;20022;-79
2023/12/10 01:48:34;;;;;;;45.63;23.73;;;;;;;-144.73;100.00;54711.47;4996072;28;20056;-78
2023/12/10 01:51:01;;;;;;;42.83;22.30;;;;;;;-144.73;100.00;54719.69;4997414;28;20022;-80
2023/12/10 01:53:26;;;;;;;28.58;15.40;;;;;;;-144.73;100.00;54746.38;4996438;28;20046;-80
2023/12/10 01:55:52;;;;;;;28.27;17.25;;;;;;;-144.73;100.00;54719.69;4997820;28;20022;-79
2023/12/10 01:58:17;;;;;;;29.98;17.35;;;;;;;-144.73;100.00;54727.91;4996861;28;20034;-79
2023/12/10 02:00:44;;;;;;;39.17;20.70;;;;;;;-144.73;100.00;54719.69;4998448;28;20389;-79
2023/12/10 02:03:10;;;;;;;27.50;16.50;;;;;;;-144.73;100.00;54785.38;4995879;28;20057;-78
2023/12/10 02:05:36;;;;;;;31.75;17.17;;;;;;;-144.73;100.00;54723.81;4997162;28;20026;-79
2023/12/10 02:08:02;;;;;;;32.20;18.58;;;;;;;-144.73;100.00;54740.22;4995578;28;20073;-80
2023/12/10 02:10:27;;;;;;;34.35;18.20;;;;;;;-144.73;100.00;54748.44;4996226;28;20010;-79
2023/12/10 02:12:54;;;;;;;32.25;16.48;;;;;;;-144.73;100.00;54736.13;4995351;28;20093;-79
2023/12/10 02:15:21;;;;;;;30.83;16.63;;;;;;;-144.73;100.00;54699.16;4997044;28;20038;-79
2023/12/10 02:17:49;;;;;;;29.65;16.60;;;;;;;-144.73;100.00;54756.66;4999950;28;20034;-80
2023/12/10 02:20:16;;;;;;;32.67;18.77;;;;;;;-144.73;100.00;54707.38;5002622;28;20173;-82
2023/12/10 02:23:07;;;;;;;31.80;17.05;;;;;;;-144.73;100.00;54727.91;5000769;28;20049;-81
2023/12/10 02:25:39;;;;;;;36.42;16.60;;;;;;;-144.73;100.00;54723.81;4982977;28;20437;-80
2023/12/10 02:28:07;;;;;;;33.28;16.92;;;;;;;-144.73;100.00;54748.44;4980730;28;20039;-79
2023/12/10 02:30:35;;;;;;;30.17;15.93;;;;;;;-144.73;100.00;54740.22;4963133;28;20023;-81
2023/12/10 02:33:01;;;;;;;39.10;18.77;;;;;;;-144.73;100.00;54703.28;4975289;28;20589;-79
2023/12/10 02:35:27;;;;;;;31.67;16.23;;;;;;;-144.73;100.00;54744.31;4981375;28;20030;-79
2023/12/10 02:37:52;;;;;;;29.48;16.83;;;;;;;-144.73;100.00;54729.97;4980644;28;20034;-81
2023/12/10 02:40:18;;;;;;;33.42;16.60;;;;;;;-144.73;100.00;54713.53;4982515;28;20033;-79
2023/12/10 02:42:45;;;;;;;39.97;19.05;;;;;;;-144.73;100.00;54732.00;4979382;28;20027;-79
2023/12/10 02:45:11;;;;;;;30.95;15.82;;;;;;;-144.73;100.00;54727.91;4978549;28;20091;-79
2023/12/10 02:47:36;;;;;;;41.38;18.42;;;;;;;-144.73;100.00;54752.53;4976885;28;20031;-78
2023/12/10 02:50:02;;;;;;;45.95;20.10;;;;;;;-144.73;100.00;54752.53;4979748;28;20019;-79
2023/12/10 02:52:28;;;;;;;37.33;18.00;;;;;;;-144.73;100.00;54707.38;4978860;28;20031;-78
2023/12/10 02:54:54;;;;;;;46.35;19.58;;;;;;;-144.73;100.00;54762.81;4979627;28;20030;-78
2023/12/10 02:57:20;;;;;;;29.33;16.50;;;;;;;-144.73;100.00;54723.81;4978030;28;20042;-79
2023/12/10 02:59:45;;;;;;;47.80;20.35;;;;;;;-144.73;100.00;54707.38;5011748;28;20023;-78
2023/12/10 03:02:10;;;;;;;58.10;21.88;;;;;;;-144.73;100.00;54719.69;4977426;28;20031;-78
2023/12/10 03:04:36;;;;;;;42.28;18.60;;;;;;;-144.73;100.00;54727.91;5010646;28;20031;-78
2023/12/10 03:07:01;;;;;;;40.05;17.60;;;;;;;-144.73;100.00;54707.38;4978100;28;20039;-79
2023/12/10 03:09:27;;;;;;;42.28;19.17;;;;;;;-144.73;100.00;54719.69;4995902;28;20026;-78
2023/12/10 03:11:52;;;;;;;52.40;22.30;;;;;;;-144.73;100.00;54744.31;4994497;28;20042;-78
2023/12/10 03:14:18;;;;;;;50.30;21.33;;;;;;;-144.73;100.00;54725.84;4994976;28;20048;-78
2023/12/10 03:16:43;;;;;;;48.22;21.02;;;;;;;-144.73;100.00;54713.53;4994292;28;20023;-77
2023/12/10 03:19:09;;;;;;;45.65;18.98;;;;;;;-144.73;100.00;54771.00;4995003;28;20027;-78
2023/12/10 03:21:35;;;;;;;121.60;21.45;;;;;;;-144.73;100.00;54705.31;4994172;28;20022;-78
2023/12/10 03:24:04;;;;;;;43.55;17.67;;;;;;;-144.73;100.00;54715.59;4994464;28;20033;-78
2023/12/10 03:26:33;;;;;;;57.17;19.90;;;;;;;-144.73;100.00;54715.59;5010647;28;20149;-78
2023/12/10 03:28:58;;;;;;;45.90;19.25;;;;;;;-144.73;100.00;54715.59;5025086;28;20093;-78
2023/12/10 03:31:24;;;;;;;61.40;23.98;;;;;;;-144.73;100.00;54744.31;5026933;28;20038;-78
2023/12/10 03:33:50;;;;;;;65.80;20.60;;;;;;;-144.73;100.00;54736.13;4993070;28;20117;-78
2023/12/10 03:36:17;;;;;;;49.08;17.08;;;;;;;-144.73;100.00;54752.53;4974903;28;20027;-78
2023/12/10 03:38:43;;;;;;;71.55;21.40;;;;;;;-144.73;100.00;54719.69;4973980;28;20042;-77
2023/12/10 03:41:08;;;;;;;66.90;21.15;;;;;;;-144.73;100.00;54727.91;4974578;28;20081;-78
2023/12/10 03:43:33;;;;;;;57.42;20.27;;;;;;;-144.73;100.00;54748.44;4973619;28;20038;-78
2023/12/10 03:46:02;;;;;;;50.67;21.05;;;;;;;-144.73;100.00;54736.13;4973719;28;20030;-78
2023/12/10 03:48:27;;;;;;;62.95;19.75;;;;;;;-144.73;100.00;54766.91;4973734;28;20035;-78
2023/12/10 03:50:52;;;;;;;64.00;19.17;;;;;;;-144.73;100.00;54688.91;5007017;28;20130;-78
2023/12/10 03:53:18;;;;;;;66.78;22.63;;;;;;;-144.73;100.00;54768.97;4973479;28;20035;-78
2023/12/10 03:55:43;;;;;;;73.82;20.95;;;;;;;-144.73;100.00;54748.44;4974351;28;20030;-77
2023/12/10 03:58:09;;;;;;;54.85;17.02;;;;;;;-144.73;100.00;54740.22;5006158;28;20358;-78
2023/12/10 04:00:34;;;;;;;91.47;21.55;;;;;;;-144.73;100.00;54707.38;4973984;28;20027;-78
2023/12/10 04:02:59;;;;;;;64.13;17.95;;;;;;;-144.73;100.00;54711.47;5006258;28;20043;-78
2023/12/10 04:05:25;;;;;;;74.03;19.70;;;;;;;-144.73;100.00;54740.22;5006765;28;20105;-78
2023/12/10 04:07:50;;;;;;;59.60;17.65;;;;;;;-144.73;100.00;54744.31;5005902;28;20039;-78
2023/12/10 04:10:15;;;;;;;61.67;18.58;;;;;;;-144.73;100.00;54748.44;4985739;28;20109;-78
2023/12/10 04:12:41;;;;;;;67.82;19.10;;;;;;;-144.73;100.00;54748.44;4992932;28;20060;-78
2023/12/10 04:15:07;;;;;;;55.30;16.08;;;;;;;-144.73;100.00;54723.81;5026236;28;20022;-78
2023/12/10 04:17:32;;;;;;;67.68;17.17;;;;;;;-144.73;100.00;54752.53;4993081;28;20061;-78
2023/12/10 04:19:57;;;;;;;78.57;21.13;;;;;;;-144.73;100.00;54719.69;4993095;28;20038;-78
2023/12/10 04:22:23;;;;;;;74.47;17.50;;;;;;;-144.73;100.00;54707.38;5025185;28;20378;-78
2023/12/10 04:24:48;;;;;;;66.57;15.13;;;;;;;-144.73;100.00;54752.53;5025839;28;20026;-76
2023/12/10 04:27:13;;;;;;;61.17;13.98;;;;;;;-144.73;100.00;54705.31;4991843;28;20122;-77
2023/12/10 04:29:39;;;;;;;71.10;15.90;;;;;;;-144.73;100.00;54727.91;5025710;28;20054;-76
2023/12/10 04:32:04;;;;;;;61.20;12.70;;;;;;;-144.73;100.00;54736.13;4992467;28;20113;-77
2023/12/10 04:34:30;;;;;;;58.10;12.68;;;;;;;-144.73;100.00;54764.84;4991276;28;20026;-77
2023/12/10 04:36:55;;;;;;;71.93;12.70;;;;;;;-144.73;100.00;54727.91;4983743;28;20030;-77
2023/12/10 04:39:21;;;;;;;63.20;11.52;;;;;;;-144.73;100.00;54736.13;4973179;28;20178;-77
2023/12/10 04:41:46;;;;;;;71.43;10.95;;;;;;;-144.73;100.00;54703.28;5005093;28;20073;-76
2023/12/10 04:44:11;;;;;;;81.53;13.20;;;;;;;-144.73;100.00;54773.06;5020821;28;20026;-77
2023/12/10 04:46:38;;;;;;;83.25;10.82;;;;;;;-144.73;100.00;54719.69;4986748;28;20473;-76
2023/12/10 04:49:03;;;;;;;69.90;10.32;;;;;;;-144.73;100.00;54740.22;4980986;28;20023;-76
2023/12/10 04:51:28;;;;;;;66.80;8.88;;;;;;;-144.73;100.00;54703.28;4991964;28;20030;-77
2023/12/10 04:53:54;;;;;;;71.78;10.35;;;;;;;-144.73;100.00;54732.00;4976792;28;20029;-76
2023/12/10 04:56:19;;;;;;;83.72;9.35;;;;;;;-144.73;100.00;54693.00;4980105;28;20022;-77
2023/12/10 04:58:45;;;;;;;83.10;11.60;;;;;;;-144.73;100.00;54695.06;4972724;28;20130;-77
2023/12/10 05:01:10;;;;;;;78.85;9.05;;;;;;;-144.73;100.00;54703.28;4973121;28;20465;-77
2023/12/10 05:03:35;;;;;;;66.07;9.90;;;;;;;-144.73;100.00;54732.00;4972720;28;20057;-77
2023/12/10 05:06:01;;;;;;;85.88;11.38;;;;;;;-144.73;100.00;54760.75;4972944;28;20022;-77
2023/12/10 05:08:27;;;;;;;68.80;7.95;;;;;;;-144.73;100.00;54729.97;4972455;28;20494;-77
2023/12/10 05:10:52;;;;;;;70.95;8.93;;;;;;;-144.73;100.00;54764.84;4972704;28;20022;-77
2023/12/10 05:13:17;;;;;;;55.53;7.97;;;;;;;-144.73;100.00;54723.81;4976784;28;20493;-77
2023/12/10 05:15:43;;;;;;;59.60;8.48;;;;;;;-144.73;100.00;54711.47;4979267;28;20026;-77
2023/12/10 05:18:08;;;;;;;63.15;8.88;;;;;;;-144.73;100.00;54723.81;4974743;28;20073;-77
2023/12/10 05:20:34;;;;;;;59.45;7.90;;;;;;;-144.73;100.00;54748.44;4972617;28;20049;-77
2023/12/10 05:22:59;;;;;;;60.30;8.07;;;;;;;-144.73;100.00;54736.13;5004644;28;20094;-77
2023/12/10 05:25:27;;;;;;;61.30;8.10;;;;;;;-144.73;100.00;54703.28;5005223;28;20054;-76
2023/12/10 05:27:54;;;;;;;77.00;9.35;;;;;;;-144.73;100.00;54707.38;4981971;28;20066;-76
2023/12/10 05:30:19;;;;;;;61.05;8.98;;;;;;;-144.73;100.00;54729.97;4971969;28;20015;-76
2023/12/10 05:32:44;;;;;;;74.35;7.38;;;;;;;-144.73;100.00;54715.59;4970538;28;20114;-77
2023/12/10 05:35:10;;;;;;;54.72;7.18;;;;;;;-144.73;100.00;54723.81;4971211;28;20046;-75
2023/12/10 05:37:35;;;;;;;62.72;9.20;;;;;;;-144.73;100.00;54729.97;4974297;28;20517;-75
2023/12/10 05:40:00;;;;;;;55.60;7.97;;;;;;;-144.73;100.00;54703.28;4988968;28;20031;-75
2023/12/10 05:42:27;;;;;;;53.72;7.80;;;;;;;-144.73;100.00;54707.38;4978473;28;20045;-76
2023/12/10 05:44:54;;;;;;;61.97;7.90;;;;;;;-144.73;100.00;54748.44;4983483;28;20077;-77
2023/12/10 05:47:19;;;;;;;58.20;8.10;;;;;;;-144.73;100.00;54723.81;4990492;28;20026;-77
2023/12/10 05:49:44;;;;;;;51.38;7.72;;;;;;;-144.73;100.00;54750.50;4991839;28;20122;-77
2023/12/10 05:52:10;;;;;;;63.90;8.18;;;;;;;-144.73;100.00;54727.91;4993024;28;20042;-77
2023/12/10 05:54:35;;;;;;;71.90;9.27;;;;;;;-144.73;100.00;54729.97;4987560;28;20039;-77
2023/12/10 05:57:00;;;;;;;68.10;9.48;;;;;;;-144.73;100.00;54732.00;5007974;28;20050;-77
2023/12/10 05:59:26;;;;;;;54.35;9.10;;;;;;;-144.73;100.00;54703.28;5009072;28;20031;-77
2023/12/10 06:01:51;;;;;;;65.57;9.65;;;;;;;-144.73;100.00;54723.81;4975836;28;20042;-77
2023/12/10 06:04:16;;;;;;;73.70;9.88;;;;;;;-144.73;100.00;54670.44;5009001;28;20050;-77
2023/12/10 06:06:42;;;;;;;68.93;8.57;;;;;;;-144.73;100.00;54727.91;4983432;28;20377;-77
2023/12/10 06:09:09;;;;;;;65.22;9.43;;;;;;;-144.73;100.00;54711.47;5008229;28;20107;-77
2023/12/10 06:11:34;;;;;;;69.50;8.68;;;;;;;-144.73;100.00;54715.59;4975321;28;20081;-77
2023/12/10 06:14:00;;;;;;;85.35;10.15;;;;;;;-144.73;100.00;54715.59;4975931;28;20047;-77
2023/12/10 06:16:25;;;;;;;66.82;9.13;;;;;;;-144.73;100.00;54711.47;4964689;28;20035;-77
2023/12/10 06:18:50;;;;;;;79.38;9.60;;;;;;;-144.73;100.00;54719.69;4974730;28;20043;-77
2023/12/10 06:21:16;;;;;;;72.53;8.45;;;;;;;-144.73;100.00;54705.31;4975785;28;20027;-77
2023/12/10 06:23:41;;;;;;;83.25;9.63;;;;;;;-144.73;100.00;54690.97;4975648;28;20069;-77
2023/12/10 06:26:06;;;;;;;82.13;9.32;;;;;;;-144.73;100.00;54760.75;5008346;28;20031;-77
2023/12/10 06:28:32;;;;;;;79.43;8.55;;;;;;;-144.73;100.00;54717.66;4974972;28;20075;-78
2023/12/10 06:30:58;;;;;;;60.53;8.48;;;;;;;-144.73;100.00;54727.91;4976067;28;20023;-76
2023/12/10 06:33:23;;;;;;;73.78;9.30;;;;;;;-144.73;100.00;54736.13;4975320;28;20093;-77
2023/12/10 06:35:48;;;;;;;72.47;8.15;;;;;;;-144.73;100.00;54699.16;4975752;28;20018;-77
2023/12/10 06:38:14;;;;;;;79.57;10.27;;;;;;;-144.73;100.00;54727.91;4975401;28;20148;-77
2023/12/10 06:40:39;;;;;;;84.07;7.88;;;;;;;-144.73;100.00;54732.00;4976057;28;20471;-78
2023/12/10 06:43:04;;;;;;;78.70;8.30;;;;;;;-144.73;100.00;54707.38;4975345;28;20114;-78
2023/12/10 06:45:30;;;;;;;63.55;9.68;;;;;;;-144.73;100.00;54727.91;4976989;28;20236;-78
2023/12/10 06:47:55;;;;;;;72.32;10.32;;;;;;;-144.73;100.00;54727.91;4975545;28;20027;-77
2023/12/10 06:50:21;;;;;;;78.85;10.32;;;;;;;-144.73;100.00;54721.75;4975776;28;20038;-76
2023/12/10 06:52:46;;;;;;;67.47;8.30;;;;;;;-144.73;100.00;54727.91;4974837;28;20070;-76
2023/12/10 06:55:11;;;;;;;52.78;7.38;;;;;;;-144.73;100.00;54736.13;4975838;28;20026;-77
2023/12/10 06:57:37;;;;;;;57.47;8.00;;;;;;;-144.73;100.00;54711.47;4974835;28;20035;-76
2023/12/10 07:00:04;;;;;;;61.90;8.90;;;;;;;-144.73;100.00;54744.31;4975441;28;20037;-77
2023/12/10 07:02:29;;;;;;;48.53;6.75;;;;;;;-144.73;100.00;54760.75;4974988;28;20035;-79
2023/12/10 07:04:55;;;;;;;76.85;8.45;;;;;;;-144.73;100.00;54719.69;4975869;28;20029;-77
2023/12/10 07:07:20;;;;;;;70.63;9.52;;;;;;;-144.73;100.00;54752.53;4975545;28;20034;-77
2023/12/10 07:09:45;;;;;;;65.50;7.80;;;;;;;-144.73;100.00;54756.66;4977015;28;20019;-78
2023/12/10 07:12:11;;;;;;;49.80;8.45;;;;;;;-144.73;100.00;54695.06;4976659;28;20138;-78
2023/12/10 07:14:36;;;;;;;55.15;8.00;;;;;;;-144.73;100.00;54727.91;4976642;28;20520;-78
2023/12/10 07:17:01;;;;;;;53.55;7.82;;;;;;;-144.73;100.00;54699.16;4976866;28;20086;-78
2023/12/10 07:19:27;;;;;;;68.45;8.02;;;;;;;-144.73;100.00;54707.38;4978633;28;20034;-77
2023/12/10 07:21:55;;;;;;;64.97;10.27;;;;;;;-144.73;100.00;54768.97;5010223;28;20042;-78
2023/12/10 07:24:21;;;;;;;64.00;7.47;;;;;;;-144.73;100.00;54703.28;4979708;28;20030;-77
2023/12/10 07:26:47;;;;;;;56.45;7.07;;;;;;;-144.73;100.00;54736.13;4975660;28;20035;-78
2023/12/10 07:29:13;;;;;;;61.10;7.68;;;;;;;-144.73;100.00;54729.97;4976979;28;20069;-78
2023/12/10 07:31:39;;;;;;;50.00;8.18;;;;;;;-144.73;100.00;54748.44;5010169;28;20031;-79
2023/12/10 07:34:05;;;;;;;54.60;7.32;;;;;;;-144.73;100.00;54736.13;4979727;28;20027;-79
2023/12/10 07:36:30;;;;;;;59.85;8.52;;;;;;;-144.73;100.00;54727.91;4979898;28;20038;-79
2023/12/10 07:38:56;;;;;;;42.35;7.07;;;;;;;-144.73;100.00;54719.69;4980120;28;20034;-79
2023/12/10 07:41:21;;;;;;;52.30;7.85;;;;;;;-144.73;100.00;54744.31;5012448;28;20030;-79
2023/12/10 07:43:47;;;;;;;38.70;6.65;;;;;;;-144.73;100.00;54707.38;5010725;28;20050;-79
2023/12/10 07:46:15;;;;;;;63.47;8.82;;;;;;;-144.73;100.00;54732.00;5011487;28;20034;-73
2023/12/10 07:48:40;;;;;;;50.08;7.63;;;;;;;-144.73;100.00;54744.31;4979766;28;20046;-72
2023/12/10 07:51:06;;;;;;;45.65;5.78;;;;;;;-144.73;100.00;54719.69;4974628;28;20022;-73
2023/12/10 07:53:32;;;;;;;51.60;7.35;;;;;;;-144.73;100.00;54742.28;4990122;28;20043;-73
2023/12/10 07:55:58;;;;;;;43.10;6.38;;;;;;;-144.73;100.00;54686.84;4989515;28;20154;-73
2023/12/10 07:58:23;;;;;;;52.03;7.55;;;;;;;-144.73;100.00;54756.66;4992982;28;20045;-73
2023/12/10 08:00:49;;;;;;;49.10;6.95;;;;;;;-144.73;100.00;54771.00;4978678;28;20094;-73
2023/12/10 08:03:15;;;;;;;50.53;7.03;;;;;;;-144.73;100.00;54707.38;4991785;28;20066;-73
2023/12/10 08:05:40;;;;;;;46.47;7.40;;;;;;;-144.73;100.00;54764.84;4955356;29;20031;-73
2023/12/10 08:08:06;;;;;;;39.78;5.90;;;;;;;-144.73;100.00;54723.81;4953243;28;20039;-72
2023/12/10 08:10:31;;;;;;;51.95;6.82;;;;;;;-144.73;100.00;54699.16;4952661;29;20059;-73
2023/12/10 08:12:57;;;;;;;44.78;6.63;;;;;;;-144.73;100.00;54732.00;4951334;29;20036;-73
2023/12/10 08:15:22;;;;;;;44.47;6.65;;;;;;;-144.73;100.00;54748.44;4952190;28;20034;-73
2023/12/10 08:17:47;;;;;;;40.17;6.30;;;;;;;-144.73;100.00;54762.81;4951292;28;20098;-73
2023/12/10 08:20:13;;;;;;;50.38;7.35;;;;;;;-144.73;100.00;54740.22;4984797;28;20032;-72
2023/12/10 08:22:38;;;;;;;35.90;6.35;;;;;;;-144.73;100.00;54703.28;4961727;28;20038;-72
2023/12/10 08:25:05;;;;;;;45.47;6.25;;;;;;;-144.73;100.00;54738.16;5004116;28;20109;-72
2023/12/10 08:27:31;;;;;;;38.00;6.00;;;;;;;-144.73;100.00;54711.47;4970571;28;20045;-72
2023/12/10 08:29:56;;;;;;;34.03;5.97;;;;;;;-144.73;100.00;54723.81;4971993;28;20027;-73
2023/12/10 08:32:21;;;;;;;29.90;5.63;;;;;;;-144.73;100.00;54740.22;4978321;28;20121;-72
2023/12/10 08:34:47;;;;;;;37.97;6.25;;;;;;;-144.73;100.00;54715.59;4986910;28;20045;-74
2023/12/10 08:37:12;;;;;;;33.33;5.60;;;;;;;-144.73;100.00;54740.22;4985849;28;20049;-72
2023/12/10 08:39:38;;;;;;;30.98;6.93;;;;;;;-144.73;100.00;54723.81;4990746;28;20045;-72
2023/12/10 08:42:03;;;;;;;45.80;6.43;;;;;;;-144.73;100.00;54744.31;4990480;28;20045;-71
2023/12/10 08:44:29;;;;;;;36.83;6.38;;;;;;;-144.73;100.00;54682.75;4975980;28;20492;-72
2023/12/10 08:46:54;;;;;;;35.53;5.32;;;;;;;-144.73;100.00;54756.66;4990052;28;20034;-72
2023/12/10 08:49:20;;;;;;;33.95;6.78;;;;;;;-144.73;100.00;54732.00;4990477;28;20033;-72
2023/12/10 08:51:45;;;;;;;36.78;6.68;;;;;;;-144.73;100.00;54732.00;4977642;28;20035;-71
2023/12/10 08:54:10;;;;;;;28.15;4.75;;;;;;;-144.73;100.00;54760.75;4953132;29;20118;-71
2023/12/10 08:56:36;;;;;;;29.05;5.32;;;;;;;-144.73;100.00;54744.31;4984340;28;20050;-71
2023/12/10 08:59:03;;;;;;;38.97;5.00;;;;;;;-144.73;100.00;54695.06;4971283;28;20035;-71
2023/12/10 09:01:29;;;;;;;36.08;5.43;;;;;;;-144.73;100.00;54701.22;4970509;28;20118;-70
2023/12/10 09:03:54;;;;;;;29.92;5.40;;;;;;;-144.73;100.00;54752.53;4970819;28;20121;-71
2023/12/10 09:06:20;;;;;;;23.83;5.78;;;;;;;-144.73;100.00;54764.84;4972403;28;20026;-71
2023/12/10 09:08:45;;;;;;;22.85;3.95;;;;;;;-144.73;100.00;54736.13;4970554;28;20054;-72
2023/12/10 09:11:11;;;;;;;31.75;5.20;;;;;;;-144.73;100.00;54703.28;4970723;28;20641;-70
2023/12/10 09:13:36;;;;;;;27.92;5.53;;;;;;;-144.73;100.00;54719.69;5003238;28;20049;-72
2023/12/10 09:16:02;;;;;;;28.02;5.18;;;;;;;-144.73;100.00;54736.13;4982516;28;20026;-72
2023/12/10 09:18:27;;;;;;;29.02;5.13;;;;;;;-144.73;100.00;54715.59;4972588;28;20466;-72
2023/12/10 09:20:54;;;;;;;25.55;6.03;;;;;;;-144.73;100.00;54732.00;4983298;28;20031;-72
2023/12/10 09:23:20;;;;;;;28.95;6.60;;;;;;;-144.73;100.00;54732.00;4981245;28;20043;-72
2023/12/10 09:25:45;;;;;;;30.88;5.03;;;;;;;-144.73;100.00;54709.44;5002737;28;20561;-71
2023/12/10 09:28:11;;;;;;;25.80;4.75;;;;;;;-144.73;100.00;54678.63;4968679;28;20039;-72
2023/12/10 09:30:36;;;;;;;24.75;4.95;;;;;;;-144.73;100.00;54732.00;5004419;28;20034;-71
2023/12/10 09:33:02;;;;;;;25.30;5.15;;;;;;;-144.73;100.00;54768.97;4970255;28;20045;-72
2023/12/10 09:35:27;;;;;;;30.67;5.07;;;;;;;-144.73;100.00;54703.28;4985742;28;20037;-72
2023/12/10 09:37:53;;;;;;;24.13;5.60;;;;;;;-144.73;100.00;54703.28;5006850;28;20043;-71
2023/12/10 09:40:18;;;;;;;34.33;5.85;;;;;;;-144.73;100.00;54775.13;5004573;28;20081;-71
2023/12/10 09:42:44;;;;;;;20.75;5.03;;;;;;;-144.73;100.00;54719.69;4975705;28;20031;-72
2023/12/10 09:45:09;;;;;;;18.65;4.88;;;;;;;-144.73;100.00;54760.75;4970558;28;20027;-72
2023/12/10 09:47:35;;;;;;;29.17;5.45;;;;;;;-144.73;100.00;54717.66;5001525;28;20174;-71
2023/12/10 09:50:02;;;;;;;27.92;6.68;;;;;;;-144.73;100.00;54711.47;4970394;28;20023;-71
2023/12/10 09:52:28;;;;;;;42.50;5.55;;;;;;;-144.73;100.00;54711.47;4979088;28;20050;-72
2023/12/10 09:54:53;;;;;;;31.60;7.25;;;;;;;-144.73;100.00;54732.00;5003167;28;20398;-71
2023/12/10 09:57:20;;;;;;;27.55;6.15;;;;;;;-144.73;100.00;54723.81;5002103;28;20035;-72
2023/12/10 09:59:46;;;;;;;26.90;5.80;;;;;;;-144.73;100.00;54723.81;4970127;28;20035;-70
2023/12/10 10:02:12;;;;;;;19.45;5.47;;;;;;;-144.73;100.00;54742.28;4969694;28;20047;-72
2023/12/10 10:04:41;;;;;;;25.30;5.55;;;;;;;-144.73;100.00;54711.47;4975053;28;20030;-72
2023/12/10 10:07:07;;;;;;;26.88;5.65;;;;;;;-144.73;100.00;54707.38;4989178;28;20412;-72
2023/12/10 10:09:36;;;;;;;34.75;7.88;;;;;;;-144.73;100.00;54752.53;4989501;28;20081;-74
2023/12/10 10:12:02;;;;;;;32.55;6.45;;;;;;;-144.73;100.00;54768.97;4989560;28;20089;-71
2023/12/10 10:14:28;;;;;;;23.15;6.35;;;;;;;-144.73;100.00;54746.38;4989804;28;20030;-72
2023/12/10 10:16:53;;;;;;;29.58;6.55;;;;;;;-144.73;100.00;54764.84;4973321;28;20034;-71
2023/12/10 10:19:19;;;;;;;25.75;5.93;;;;;;;-144.73;100.00;54707.38;4970664;28;20077;-72
2023/12/10 10:21:45;;;;;;;26.52;7.13;;;;;;;-144.73;100.00;54723.81;5003275;28;20033;-72
2023/12/10 10:24:11;;;;;;;25.20;6.72;;;;;;;-144.73;100.00;54695.06;4989100;28;20366;-72
2023/12/10 10:26:38;;;;;;;31.25;7.22;;;;;;;-144.73;100.00;54740.22;4974484;28;20117;-73
2023/12/10 10:29:04;;;;;;;20.48;5.80;;;;;;;-144.73;100.00;54695.06;4969692;28;20042;-74
2023/12/10 10:31:32;;;;;;;25.05;5.95;;;;;;;-144.73;100.00;54711.47;4969610;28;20080;-72
2023/12/10 10:34:03;;;;;;;24.33;7.63;;;;;;;-144.73;100.00;54719.69;5002788;28;20027;-72
2023/12/10 10:36:30;;;;;;;21.98;6.50;;;;;;;-144.73;100.00;54732.00;4974260;28;20030;-73
2023/12/10 10:38:56;;;;;;;22.55;7.97;;;;;;;-144.73;100.00;54719.69;4975583;28;20081;-72
2023/12/10 10:41:22;;;;;;;28.55;8.60;;;;;;;-144.73;100.00;54748.44;4974521;28;20027;-73
2023/12/10 10:43:48;;;;;;;23.00;7.13;;;;;;;-144.73;100.00;54752.53;5005806;28;20066;-72
2023/12/10 10:46:19;;;;;;;25.00;7.93;;;;;;;-144.73;100.00;54713.53;4973569;28;20026;-73
2023/12/10 10:48:44;;;;;;;21.48;9.00;;;;;;;-144.73;100.00;54736.13;4973593;28;20030;-72
2023/12/10 10:51:11;;;;;;;16.38;5.95;;;;;;;-144.73;100.00;54727.91;4973557;28;20025;-73